Terminal Aerodrome Forecast
Issued by NWS

Home | Current Version | Previous Version | Text Only | Print | Product List | Glossary On
Versions: 1 2 3 4 5 6 7 8 9 10 11 12
000
FTUS45 KABQ 252320
TAFGUP
TAF
KGUP 252320Z 2600/2624 22010G20KT P6SM SKC
     FM260300 23008KT P6SM SKC
     FM260600 VRB03KT P6SM FEW250
     FM261600 21012G20KT P6SM SCT250
     FM262000 22022G33KT P6SM BKN200=

USA.gov is the U.S. government's official web portal to all federal, state and local government web resources and services.